sensor_id;sensor_type;location;lat;lon;timestamp;temperature;humidity
41644;DHT22;44236;48.098;11.582;2022-12-18T05:32:28;16.10;38.10
41644;DHT22;44236;48.098;11.582;2022-12-18T05:34:53;16.10;38.10
41644;DHT22;44236;48.098;11.582;2022-12-18T05:37:19;16.10;38.20
41644;DHT22;44236;48.098;11.582;2022-12-18T05:39:44;16.10;38.10
41644;DHT22;44236;48.098;11.582;2022-12-18T05:42:10;16.10;38.00
41644;DHT22;44236;48.098;11.582;2022-12-18T05:44:36;16.10;37.80
41644;DHT22;44236;48.098;11.582;2022-12-18T05:47:01;16.20;37.70
41644;DHT22;44236;48.098;11.582;2022-12-18T05:49:27;16.20;37.70
41644;DHT22;44236;48.098;11.582;2022-12-18T05:51:52;16.30;37.50
41644;DHT22;44236;48.098;11.582;2022-12-18T05:54:18;16.30;37.40
41644;DHT22;44236;48.098;11.582;2022-12-18T05:56:43;16.30;37.40
41644;DHT22;44236;48.098;11.582;2022-12-18T05:59:09;16.40;37.40
41644;DHT22;44236;48.098;11.582;2022-12-18T06:01:35;16.40;37.20
41644;DHT22;44236;48.098;11.582;2022-12-18T06:04:00;16.40;37.40
41644;DHT22;44236;48.098;11.582;2022-12-18T06:06:27;16.40;37.20
41644;DHT22;44236;48.098;11.582;2022-12-18T06:08:54;16.40;37.00
41644;DHT22;44236;48.098;11.582;2022-12-18T06:11:25;16.40;36.90
41644;DHT22;44236;48.098;11.582;2022-12-18T06:13:55;16.50;36.80
41644;DHT22;44236;48.098;11.582;2022-12-18T06:16:21;16.50;36.30
41644;DHT22;44236;48.098;11.582;2022-12-18T06:18:46;16.50;36.90
41644;DHT22;44236;48.098;11.582;2022-12-18T06:21:12;16.50;36.30
41644;DHT22;44236;48.098;11.582;2022-12-18T06:23:38;16.60;35.90
41644;DHT22;44236;48.098;11.582;2022-12-18T06:26:07;16.60;35.80
41644;DHT22;44236;48.098;11.582;2022-12-18T06:28:33;16.60;35.90
41644;DHT22;44236;48.098;11.582;2022-12-18T06:30:59;16.60;36.30
41644;DHT22;44236;48.098;11.582;2022-12-18T06:33:28;16.60;35.70
41644;DHT22;44236;48.098;11.582;2022-12-18T06:35:54;16.60;35.20
41644;DHT22;44236;48.098;11.582;2022-12-18T06:38:24;16.60;35.70
41644;DHT22;44236;48.098;11.582;2022-12-18T06:40:50;16.60;35.90
41644;DHT22;44236;48.098;11.582;2022-12-18T06:43:15;16.60;35.50
41644;DHT22;44236;48.098;11.582;2022-12-18T06:45:41;16.60;35.10
41644;DHT22;44236;48.098;11.582;2022-12-18T06:48:07;16.70;35.30
41644;DHT22;44236;48.098;11.582;2022-12-18T06:50:33;16.70;35.20
41644;DHT22;44236;48.098;11.582;2022-12-18T06:52:59;16.70;35.40
41644;DHT22;44236;48.098;11.582;2022-12-18T06:55:25;16.70;35.10
41644;DHT22;44236;48.098;11.582;2022-12-18T06:57:50;16.70;34.70
41644;DHT22;44236;48.098;11.582;2022-12-18T07:00:16;16.70;34.90
41644;DHT22;44236;48.098;11.582;2022-12-18T07:02:42;16.70;35.40
41644;DHT22;44236;48.098;11.582;2022-12-18T07:05:08;16.70;35.20
41644;DHT22;44236;48.098;11.582;2022-12-18T07:07:34;16.70;34.50
41644;DHT22;44236;48.098;11.582;2022-12-18T07:10:00;16.70;34.20
41644;DHT22;44236;48.098;11.582;2022-12-18T07:12:29;16.70;35.10
41644;DHT22;44236;48.098;11.582;2022-12-18T07:14:54;16.70;34.90
41644;DHT22;44236;48.098;11.582;2022-12-18T07:17:20;16.70;34.90
41644;DHT22;44236;48.098;11.582;2022-12-18T07:19:46;16.70;35.00
41644;DHT22;44236;48.098;11.582;2022-12-18T07:22:11;16.80;34.90
41644;DHT22;44236;48.098;11.582;2022-12-18T07:24:37;16.70;35.10
41644;DHT22;44236;48.098;11.582;2022-12-18T07:27:03;16.70;35.30
41644;DHT22;44236;48.098;11.582;2022-12-18T07:29:28;16.70;34.80
41644;DHT22;44236;48.098;11.582;2022-12-18T07:31:54;16.70;35.50
41644;DHT22;44236;48.098;11.582;2022-12-18T07:34:19;16.80;35.90
41644;DHT22;44236;48.098;11.582;2022-12-18T07:36:45;16.80;36.40
41644;DHT22;44236;48.098;11.582;2022-12-18T07:39:11;15.80;32.20
41644;DHT22;44236;48.098;11.582;2022-12-18T07:41:37;15.20;35.30
41644;DHT22;44236;48.098;11.582;2022-12-18T07:44:02;15.30;36.50
41644;DHT22;44236;48.098;11.582;2022-12-18T07:46:28;15.50;37.40
41644;DHT22;44236;48.098;11.582;2022-12-18T07:48:54;15.70;36.70
41644;DHT22;44236;48.098;11.582;2022-12-18T07:51:19;16.00;35.50
41644;DHT22;44236;48.098;11.582;2022-12-18T07:53:45;16.10;35.80
41644;DHT22;44236;48.098;11.582;2022-12-18T07:56:12;16.20;35.20
41644;DHT22;44236;48.098;11.582;2022-12-18T07:58:38;16.30;35.70
41644;DHT22;44236;48.098;11.582;2022-12-18T08:01:05;16.40;35.10
41644;DHT22;44236;48.098;11.582;2022-12-18T08:03:31;16.40;35.10
41644;DHT22;44236;48.098;11.582;2022-12-18T08:06:05;16.50;35.20
41644;DHT22;44236;48.098;11.582;2022-12-18T08:08:32;16.50;35.30
41644;DHT22;44236;48.098;11.582;2022-12-18T08:10:59;16.50;35.20
41644;DHT22;44236;48.098;11.582;2022-12-18T08:13:25;16.50;34.80
41644;DHT22;44236;48.098;11.582;2022-12-18T08:15:59;16.60;35.50
41644;DHT22;44236;48.098;11.582;2022-12-18T08:18:25;16.60;35.00
41644;DHT22;44236;48.098;11.582;2022-12-18T08:20:51;16.60;36.00
41644;DHT22;44236;48.098;11.582;2022-12-18T08:23:16;16.60;34.70
41644;DHT22;44236;48.098;11.582;2022-12-18T08:25:42;16.60;35.80
41644;DHT22;44236;48.098;11.582;2022-12-18T08:28:08;16.60;36.00
41644;DHT22;44236;48.098;11.582;2022-12-18T08:30:33;16.60;36.10
41644;DHT22;44236;48.098;11.582;2022-12-18T08:32:59;16.70;35.40
41644;DHT22;44236;48.098;11.582;2022-12-18T08:35:25;16.70;36.30
41644;DHT22;44236;48.098;11.582;2022-12-18T08:37:50;16.70;36.50
41644;DHT22;44236;48.098;11.582;2022-12-18T08:40:16;16.80;36.90
41644;DHT22;44236;48.098;11.582;2022-12-18T08:42:41;16.80;36.90
41644;DHT22;44236;48.098;11.582;2022-12-18T08:45:26;16.80;36.90
41644;DHT22;44236;48.098;11.582;2022-12-18T08:47:51;16.80;37.10
41644;DHT22;44236;48.098;11.582;2022-12-18T08:50:17;16.80;37.30
41644;DHT22;44236;48.098;11.582;2022-12-18T08:52:43;16.80;37.50
41644;DHT22;44236;48.098;11.582;2022-12-18T08:55:09;16.90;37.70
41644;DHT22;44236;48.098;11.582;2022-12-18T08:57:35;16.90;37.60
41644;DHT22;44236;48.098;11.582;2022-12-18T09:00:01;16.90;37.80
41644;DHT22;44236;48.098;11.582;2022-12-18T09:02:28;16.80;37.90
41644;DHT22;44236;48.098;11.582;2022-12-18T09:04:53;16.90;37.90
41644;DHT22;44236;48.098;11.582;2022-12-18T09:07:19;16.90;37.70
41644;DHT22;44236;48.098;11.582;2022-12-18T09:09:44;16.90;37.80
41644;DHT22;44236;48.098;11.582;2022-12-18T09:12:10;16.90;38.30
41644;DHT22;44236;48.098;11.582;2022-12-18T09:14:35;16.90;37.90
41644;DHT22;44236;48.098;11.582;2022-12-18T09:17:01;16.70;33.80
41644;DHT22;44236;48.098;11.582;2022-12-18T09:19:27;15.60;35.80
41644;DHT22;44236;48.098;11.582;2022-12-18T09:21:52;15.80;37.70
41644;DHT22;44236;48.098;11.582;2022-12-18T09:24:18;16.10;38.40
41644;DHT22;44236;48.098;11.582;2022-12-18T09:26:44;16.30;38.50
41644;DHT22;44236;48.098;11.582;2022-12-18T09:29:10;16.50;38.40
41644;DHT22;44236;48.098;11.582;2022-12-18T09:31:36;16.60;37.70
41644;DHT22;44236;48.098;11.582;2022-12-18T09:34:03;16.70;38.00
41644;DHT22;44236;48.098;11.582;2022-12-18T09:36:28;16.70;38.10
41644;DHT22;44236;48.098;11.582;2022-12-18T09:38:54;16.80;37.60
41644;DHT22;44236;48.098;11.582;2022-12-18T09:44:27;16.80;38.10
41644;DHT22;44236;48.098;11.582;2022-12-18T09:47:27;16.80;36.30
41644;DHT22;44236;48.098;11.582;2022-12-18T09:50:00;16.90;38.60
41644;DHT22;44236;48.098;11.582;2022-12-18T09:52:40;16.90;38.00
41644;DHT22;44236;48.098;11.582;2022-12-18T09:55:33;16.90;38.20
41644;DHT22;44236;48.098;11.582;2022-12-18T10:00:42;17.00;37.10
41644;DHT22;44236;48.098;11.582;2022-12-18T10:03:13;17.00;35.90
41644;DHT22;44236;48.098;11.582;2022-12-18T10:06:06;17.00;36.30
41644;DHT22;44236;48.098;11.582;2022-12-18T10:11:10;17.00;36.60
41644;DHT22;44236;48.098;11.582;2022-12-18T10:14:06;17.00;36.20
41644;DHT22;44236;48.098;11.582;2022-12-18T10:16:43;17.00;37.20
41644;DHT22;44236;48.098;11.582;2022-12-18T10:19:37;17.10;36.30
41644;DHT22;44236;48.098;11.582;2022-12-18T10:25:04;17.00;36.80
41644;DHT22;44236;48.098;11.582;2022-12-18T10:27:32;17.10;36.60
41644;DHT22;44236;48.098;11.582;2022-12-18T10:29:58;17.10;36.80
41644;DHT22;44236;48.098;11.582;2022-12-18T10:32:26;17.10;37.60
41644;DHT22;44236;48.098;11.582;2022-12-18T10:34:54;17.10;37.00
41644;DHT22;44236;48.098;11.582;2022-12-18T10:37:23;17.20;36.50
41644;DHT22;44236;48.098;11.582;2022-12-18T10:40:14;17.10;37.40
41644;DHT22;44236;48.098;11.582;2022-12-18T10:42:40;17.10;37.00
41644;DHT22;44236;48.098;11.582;2022-12-18T10:45:13;17.10;38.10
41644;DHT22;44236;48.098;11.582;2022-12-18T10:47:46;17.20;38.10
41644;DHT22;44236;48.098;11.582;2022-12-18T10:50:33;17.20;37.70
41644;DHT22;44236;48.098;11.582;2022-12-18T10:53:00;17.20;38.10
41644;DHT22;44236;48.098;11.582;2022-12-18T10:55:39;17.20;38.10
41644;DHT22;44236;48.098;11.582;2022-12-18T10:58:33;17.20;38.60
41644;DHT22;44236;48.098;11.582;2022-12-18T11:01:09;17.20;38.10
41644;DHT22;44236;48.098;11.582;2022-12-18T11:03:47;17.20;37.00
41644;DHT22;44236;48.098;11.582;2022-12-18T11:06:24;17.20;35.50
41644;DHT22;44236;48.098;11.582;2022-12-18T11:09:06;17.20;38.90
41644;DHT22;44236;48.098;11.582;2022-12-18T11:11:55;17.20;38.30
41644;DHT22;44236;48.098;11.582;2022-12-18T11:16:52;17.30;36.10
41644;DHT22;44236;48.098;11.582;2022-12-18T11:19:35;17.30;36.50
41644;DHT22;44236;48.098;11.582;2022-12-18T11:22:17;17.30;36.10
41644;DHT22;44236;48.098;11.582;2022-12-18T11:27:20;17.30;37.20
41644;DHT22;44236;48.098;11.582;2022-12-18T11:29:49;17.20;37.00
41644;DHT22;44236;48.098;11.582;2022-12-18T11:32:39;17.20;37.30
41644;DHT22;44236;48.098;11.582;2022-12-18T11:37:49;17.10;38.10
41644;DHT22;44236;48.098;11.582;2022-12-18T11:40:22;17.20;38.10
41644;DHT22;44236;48.098;11.582;2022-12-18T11:43:09;17.10;38.00
41644;DHT22;44236;48.098;11.582;2022-12-18T11:45:43;17.10;38.00
41644;DHT22;44236;48.098;11.582;2022-12-18T11:48:34;17.00;37.70
41644;DHT22;44236;48.098;11.582;2022-12-18T11:51:05;17.00;37.90
41644;DHT22;44236;48.098;11.582;2022-12-18T11:53:34;17.00;38.00
41644;DHT22;44236;48.098;11.582;2022-12-18T12:10:14;16.90;38.10
41644;DHT22;44236;48.098;11.582;2022-12-18T12:15:43;16.90;38.10
41644;DHT22;44236;48.098;11.582;2022-12-18T12:21:15;15.10;33.20
41644;DHT22;44236;48.098;11.582;2022-12-18T12:23:47;15.30;36.00
41644;DHT22;44236;48.098;11.582;2022-12-18T12:27:06;15.70;37.10
41644;DHT22;44236;48.098;11.582;2022-12-18T12:29:26;16.00;37.30
41644;DHT22;44236;48.098;11.582;2022-12-18T12:35:11;16.50;37.10
41644;DHT22;44236;48.098;11.582;2022-12-18T12:38:31;16.60;36.70
41644;DHT22;44236;48.098;11.582;2022-12-18T12:41:09;16.70;37.20
41644;DHT22;44236;48.098;11.582;2022-12-18T12:43:59;16.70;37.00
41644;DHT22;44236;48.098;11.582;2022-12-18T12:46:27;16.80;37.00
41644;DHT22;44236;48.098;11.582;2022-12-18T12:49:01;16.80;37.30
41644;DHT22;44236;48.098;11.582;2022-12-18T12:51:29;16.90;37.10
41644;DHT22;44236;48.098;11.582;2022-12-18T12:53:57;17.00;37.30
41644;DHT22;44236;48.098;11.582;2022-12-18T12:56:34;17.00;37.20
41644;DHT22;44236;48.098;11.582;2022-12-18T13:01:41;17.00;37.70
41644;DHT22;44236;48.098;11.582;2022-12-18T13:04:19;15.60;34.20
41644;DHT22;44236;48.098;11.582;2022-12-18T13:07:11;15.60;36.30
41644;DHT22;44236;48.098;11.582;2022-12-18T13:10:13;15.90;37.40
41644;DHT22;44236;48.098;11.582;2022-12-18T13:12:56;16.10;37.40
41644;DHT22;44236;48.098;11.582;2022-12-18T13:20:38;16.60;35.60
41644;DHT22;44236;48.098;11.582;2022-12-18T13:25:52;16.70;37.10
41644;DHT22;44236;48.098;11.582;2022-12-18T13:31:10;16.80;37.30
41644;DHT22;44236;48.098;11.582;2022-12-18T13:33:38;16.80;36.80
41644;DHT22;44236;48.098;11.582;2022-12-18T13:38:40;16.90;37.20
41644;DHT22;44236;48.098;11.582;2022-12-18T13:43:49;17.00;37.40
41644;DHT22;44236;48.098;11.582;2022-12-18T13:49:17;17.00;35.60
41644;DHT22;44236;48.098;11.582;2022-12-18T13:51:48;17.10;35.70
41644;DHT22;44236;48.098;11.582;2022-12-18T13:54:39;17.20;36.30
41644;DHT22;44236;48.098;11.582;2022-12-18T13:57:31;17.20;35.70
41644;DHT22;44236;48.098;11.582;2022-12-18T14:00:01;17.30;35.70
41644;DHT22;44236;48.098;11.582;2022-12-18T14:02:45;17.40;35.60
41644;DHT22;44236;48.098;11.582;2022-12-18T14:05:29;17.50;36.70
41644;DHT22;44236;48.098;11.582;2022-12-18T14:08:07;17.50;36.60
41644;DHT22;44236;48.098;11.582;2022-12-18T14:10:33;17.60;36.40
41644;DHT22;44236;48.098;11.582;2022-12-18T14:13:06;17.70;36.40
41644;DHT22;44236;48.098;11.582;2022-12-18T14:15:52;17.70;36.80
41644;DHT22;44236;48.098;11.582;2022-12-18T14:18:26;17.80;41.30
41644;DHT22;44236;48.098;11.582;2022-12-18T14:20:57;17.90;44.70
41644;DHT22;44236;48.098;11.582;2022-12-18T14:23:35;17.80;37.20
41644;DHT22;44236;48.098;11.582;2022-12-18T14:26:03;17.80;37.40
41644;DHT22;44236;48.098;11.582;2022-12-18T14:28:29;17.90;37.50
41644;DHT22;44236;48.098;11.582;2022-12-18T14:30:55;17.90;39.90
41644;DHT22;44236;48.098;11.582;2022-12-18T14:33:26;17.90;37.50
41644;DHT22;44236;48.098;11.582;2022-12-18T14:36:04;18.00;37.50
41644;DHT22;44236;48.098;11.582;2022-12-18T14:41:01;18.10;37.60
41644;DHT22;44236;48.098;11.582;2022-12-18T14:43:29;18.10;37.70
41644;DHT22;44236;48.098;11.582;2022-12-18T14:45:56;18.20;37.70
41644;DHT22;44236;48.098;11.582;2022-12-18T14:48:40;18.20;37.50
41644;DHT22;44236;48.098;11.582;2022-12-18T14:53:38;18.20;37.60
41644;DHT22;44236;48.098;11.582;2022-12-18T14:56:15;18.30;37.60
41644;DHT22;44236;48.098;11.582;2022-12-18T14:58:49;18.30;37.50
41644;DHT22;44236;48.098;11.582;2022-12-18T15:01:33;18.30;37.40
41644;DHT22;44236;48.098;11.582;2022-12-18T15:04:01;18.30;37.20
41644;DHT22;44236;48.098;11.582;2022-12-18T15:06:38;18.40;37.00
41644;DHT22;44236;48.098;11.582;2022-12-18T15:09:25;18.50;37.40
41644;DHT22;44236;48.098;11.582;2022-12-18T15:11:56;18.50;37.10
41644;DHT22;44236;48.098;11.582;2022-12-18T15:14:41;18.60;37.30
41644;DHT22;44236;48.098;11.582;2022-12-18T15:17:17;18.70;37.40
41644;DHT22;44236;48.098;11.582;2022-12-18T15:19:45;18.80;38.40
41644;DHT22;44236;48.098;11.582;2022-12-18T15:22:27;18.90;37.20
41644;DHT22;44236;48.098;11.582;2022-12-18T15:24:54;18.70;36.60
41644;DHT22;44236;48.098;11.582;2022-12-18T15:27:35;18.80;36.50
41644;DHT22;44236;48.098;11.582;2022-12-18T15:32:36;18.90;36.60
41644;DHT22;44236;48.098;11.582;2022-12-18T15:35:22;18.90;36.70
41644;DHT22;44236;48.098;11.582;2022-12-18T15:37:49;19.00;36.70
41644;DHT22;44236;48.098;11.582;2022-12-18T15:40:20;19.00;36.90
41644;DHT22;44236;48.098;11.582;2022-12-18T15:42:47;19.00;36.60
41644;DHT22;44236;48.098;11.582;2022-12-18T15:45:31;18.90;36.50
41644;DHT22;44236;48.098;11.582;2022-12-18T15:47:57;19.00;36.70
41644;DHT22;44236;48.098;11.582;2022-12-18T15:50:24;19.00;36.50
41644;DHT22;44236;48.098;11.582;2022-12-18T15:52:51;19.00;36.50
41644;DHT22;44236;48.098;11.582;2022-12-18T15:55:19;19.00;36.50
41644;DHT22;44236;48.098;11.582;2022-12-18T15:58:05;19.00;36.40
41644;DHT22;44236;48.098;11.582;2022-12-18T16:00:32;19.10;37.00
41644;DHT22;44236;48.098;11.582;2022-12-18T16:02:59;19.10;36.50
41644;DHT22;44236;48.098;11.582;2022-12-18T16:05:26;19.10;36.50
41644;DHT22;44236;48.098;11.582;2022-12-18T16:07:51;19.20;36.60
41644;DHT22;44236;48.098;11.582;2022-12-18T16:10:17;19.10;36.50
41644;DHT22;44236;48.098;11.582;2022-12-18T16:12:43;19.10;36.50
41644;DHT22;44236;48.098;11.582;2022-12-18T16:15:12;19.10;36.50
41644;DHT22;44236;48.098;11.582;2022-12-18T16:17:39;19.20;36.70
41644;DHT22;44236;48.098;11.582;2022-12-18T16:20:08;19.20;36.80
41644;DHT22;44236;48.098;11.582;2022-12-18T16:22:36;19.20;36.70
41644;DHT22;44236;48.098;11.582;2022-12-18T16:25:02;19.20;36.70
41644;DHT22;44236;48.098;11.582;2022-12-18T16:27:28;19.30;36.60
41644;DHT22;44236;48.098;11.582;2022-12-18T16:29:53;19.20;36.70
41644;DHT22;44236;48.098;11.582;2022-12-18T16:32:20;19.30;37.10
41644;DHT22;44236;48.098;11.582;2022-12-18T16:34:46;19.30;36.90
41644;DHT22;44236;48.098;11.582;2022-12-18T16:37:13;19.30;37.10
41644;DHT22;44236;48.098;11.582;2022-12-18T16:39:40;19.30;37.60
41644;DHT22;44236;48.098;11.582;2022-12-18T16:42:17;19.30;37.80
41644;DHT22;44236;48.098;11.582;2022-12-18T16:44:45;19.30;37.80
41644;DHT22;44236;48.098;11.582;2022-12-18T16:47:11;19.30;37.90
41644;DHT22;44236;48.098;11.582;2022-12-18T16:49:37;19.30;38.10
41644;DHT22;44236;48.098;11.582;2022-12-18T16:52:04;19.50;38.50
41644;DHT22;44236;48.098;11.582;2022-12-18T16:54:30;19.30;37.80
41644;DHT22;44236;48.098;11.582;2022-12-18T16:56:57;19.30;38.30
41644;DHT22;44236;48.098;11.582;2022-12-18T16:59:23;19.30;38.40
41644;DHT22;44236;48.098;11.582;2022-12-18T17:01:50;19.30;38.40
41644;DHT22;44236;48.098;11.582;2022-12-18T17:04:16;19.40;38.70
41644;DHT22;44236;48.098;11.582;2022-12-18T17:06:44;19.30;38.50
41644;DHT22;44236;48.098;11.582;2022-12-18T17:09:12;19.40;38.60
41644;DHT22;44236;48.098;11.582;2022-12-18T17:11:39;19.50;38.70
41644;DHT22;44236;48.098;11.582;2022-12-18T17:14:13;19.40;38.80
41644;DHT22;44236;48.098;11.582;2022-12-18T17:16:39;19.40;38.80
41644;DHT22;44236;48.098;11.582;2022-12-18T17:19:05;19.50;39.00
41644;DHT22;44236;48.098;11.582;2022-12-18T17:21:31;19.50;39.30
41644;DHT22;44236;48.098;11.582;2022-12-18T17:23:59;19.50;39.50
41644;DHT22;44236;48.098;11.582;2022-12-18T17:26:25;19.60;39.70
41644;DHT22;44236;48.098;11.582;2022-12-18T17:28:51;19.70;40.30
41644;DHT22;44236;48.098;11.582;2022-12-18T17:31:19;19.70;41.40
41644;DHT22;44236;48.098;11.582;2022-12-18T17:33:46;19.70;41.70
41644;DHT22;44236;48.098;11.582;2022-12-18T17:36:13;19.70;42.20
41644;DHT22;44236;48.098;11.582;2022-12-18T17:38:42;19.70;41.50
41644;DHT22;44236;48.098;11.582;2022-12-18T17:41:10;19.80;41.30
41644;DHT22;44236;48.098;11.582;2022-12-18T17:43:36;19.80;41.40
41644;DHT22;44236;48.098;11.582;2022-12-18T17:46:05;19.80;42.40
41644;DHT22;44236;48.098;11.582;2022-12-18T17:48:31;19.70;43.00
41644;DHT22;44236;48.098;11.582;2022-12-18T17:51:05;19.70;43.60
41644;DHT22;44236;48.098;11.582;2022-12-18T17:53:31;19.70;44.30
41644;DHT22;44236;48.098;11.582;2022-12-18T17:55:58;19.80;45.10
41644;DHT22;44236;48.098;11.582;2022-12-18T17:58:26;19.70;45.70
41644;DHT22;44236;48.098;11.582;2022-12-18T18:00:52;19.90;47.00
41644;DHT22;44236;48.098;11.582;2022-12-18T18:03:18;19.70;47.60
41644;DHT22;44236;48.098;11.582;2022-12-18T18:05:44;19.70;48.20
41644;DHT22;44236;48.098;11.582;2022-12-18T18:08:09;19.60;48.30
41644;DHT22;44236;48.098;11.582;2022-12-18T18:10:36;19.50;48.20
41644;DHT22;44236;48.098;11.582;2022-12-18T18:13:03;19.70;48.40
41644;DHT22;44236;48.098;11.582;2022-12-18T18:15:57;19.70;48.90
41644;DHT22;44236;48.098;11.582;2022-12-18T18:18:23;19.60;49.00
41644;DHT22;44236;48.098;11.582;2022-12-18T18:20:49;19.60;49.60
41644;DHT22;44236;48.098;11.582;2022-12-18T18:23:15;19.60;49.30
41644;DHT22;44236;48.098;11.582;2022-12-18T18:25:41;19.70;49.40
41644;DHT22;44236;48.098;11.582;2022-12-18T18:28:06;19.60;49.30
41644;DHT22;44236;48.098;11.582;2022-12-18T18:30:32;19.70;49.50
41644;DHT22;44236;48.098;11.582;2022-12-18T18:33:00;19.60;49.20
41644;DHT22;44236;48.098;11.582;2022-12-18T18:35:26;19.70;49.50
41644;DHT22;44236;48.098;11.582;2022-12-18T18:37:51;19.90;49.40
41644;DHT22;44236;48.098;11.582;2022-12-18T18:40:17;19.70;49.30
41644;DHT22;44236;48.098;11.582;2022-12-18T18:42:43;19.70;49.30
41644;DHT22;44236;48.098;11.582;2022-12-18T18:45:09;19.70;49.70
41644;DHT22;44236;48.098;11.582;2022-12-18T18:47:36;19.70;49.40
41644;DHT22;44236;48.098;11.582;2022-12-18T18:50:01;19.60;49.70
41644;DHT22;44236;48.098;11.582;2022-12-18T18:52:27;19.60;50.00
41644;DHT22;44236;48.098;11.582;2022-12-18T18:54:52;19.60;49.80
41644;DHT22;44236;48.098;11.582;2022-12-18T18:57:18;19.60;50.40
41644;DHT22;44236;48.098;11.582;2022-12-18T18:59:45;19.70;49.70
41644;DHT22;44236;48.098;11.582;2022-12-18T19:02:12;19.70;50.00
41644;DHT22;44236;48.098;11.582;2022-12-18T19:04:39;19.80;49.90
41644;DHT22;44236;48.098;11.582;2022-12-18T19:07:05;19.80;43.30
41644;DHT22;44236;48.098;11.582;2022-12-18T19:09:31;19.70;42.80
41644;DHT22;44236;48.098;11.582;2022-12-18T19:11:57;19.70;42.80
41644;DHT22;44236;48.098;11.582;2022-12-18T19:14:42;19.60;42.80
41644;DHT22;44236;48.098;11.582;2022-12-18T19:17:10;19.60;42.90
41644;DHT22;44236;48.098;11.582;2022-12-18T19:19:35;19.40;43.00
41644;DHT22;44236;48.098;11.582;2022-12-18T19:22:01;19.60;43.20
41644;DHT22;44236;48.098;11.582;2022-12-18T19:24:27;19.60;43.00
41644;DHT22;44236;48.098;11.582;2022-12-18T19:26:53;19.60;42.80
41644;DHT22;44236;48.098;11.582;2022-12-18T19:29:19;19.50;42.80
41644;DHT22;44236;48.098;11.582;2022-12-18T19:31:44;19.50;42.60
41644;DHT22;44236;48.098;11.582;2022-12-18T19:34:10;19.50;43.30
41644;DHT22;44236;48.098;11.582;2022-12-18T19:36:38;19.50;42.90
41644;DHT22;44236;48.098;11.582;2022-12-18T19:39:13;19.40;43.80
41644;DHT22;44236;48.098;11.582;2022-12-18T19:41:39;19.50;44.20
41644;DHT22;44236;48.098;11.582;2022-12-18T19:44:05;19.50;44.20
41644;DHT22;44236;48.098;11.582;2022-12-18T19:46:31;19.40;44.40
41644;DHT22;44236;48.098;11.582;2022-12-18T19:48:58;19.40;45.70
41644;DHT22;44236;48.098;11.582;2022-12-18T19:51:26;19.30;43.90
41644;DHT22;44236;48.098;11.582;2022-12-18T19:53:53;19.20;42.70
41644;DHT22;44236;48.098;11.582;2022-12-18T19:56:21;19.20;42.60
41644;DHT22;44236;48.098;11.582;2022-12-18T19:58:48;19.20;42.90
41644;DHT22;44236;48.098;11.582;2022-12-18T20:01:15;19.20;42.70
41644;DHT22;44236;48.098;11.582;2022-12-18T20:03:41;19.30;42.60
41644;DHT22;44236;48.098;11.582;2022-12-18T20:06:12;19.30;42.50
41644;DHT22;44236;48.098;11.582;2022-12-18T20:08:38;19.30;42.50
41644;DHT22;44236;48.098;11.582;2022-12-18T20:11:04;19.30;43.10
41644;DHT22;44236;48.098;11.582;2022-12-18T20:13:30;19.30;42.50
41644;DHT22;44236;48.098;11.582;2022-12-18T20:15:56;19.40;42.70
41644;DHT22;44236;48.098;11.582;2022-12-18T20:18:21;19.40;42.50
41644;DHT22;44236;48.098;11.582;2022-12-18T20:20:47;19.40;42.70
41644;DHT22;44236;48.098;11.582;2022-12-18T20:23:13;19.40;42.50
41644;DHT22;44236;48.098;11.582;2022-12-18T20:25:38;19.40;42.50
41644;DHT22;44236;48.098;11.582;2022-12-18T20:28:04;19.50;42.60
41644;DHT22;44236;48.098;11.582;2022-12-18T20:30:30;19.50;42.60
41644;DHT22;44236;48.098;11.582;2022-12-18T20:32:56;19.50;42.40
41644;DHT22;44236;48.098;11.582;2022-12-18T20:35:23;19.50;42.40
41644;DHT22;44236;48.098;11.582;2022-12-18T20:37:52;19.70;42.70
41644;DHT22;44236;48.098;11.582;2022-12-18T20:40:20;19.60;42.50
41644;DHT22;44236;48.098;11.582;2022-12-18T20:42:46;19.60;42.20
41644;DHT22;44236;48.098;11.582;2022-12-18T20:45:12;19.60;42.10
41644;DHT22;44236;48.098;11.582;2022-12-18T20:47:38;19.70;42.20
41644;DHT22;44236;48.098;11.582;2022-12-18T20:50:04;19.70;42.50
41644;DHT22;44236;48.098;11.582;2022-12-18T20:52:30;19.70;42.40
41644;DHT22;44236;48.098;11.582;2022-12-18T20:54:56;19.80;42.40
41644;DHT22;44236;48.098;11.582;2022-12-18T20:57:21;19.80;42.80
41644;DHT22;44236;48.098;11.582;2022-12-18T20:59:47;19.80;42.60
41644;DHT22;44236;48.098;11.582;2022-12-18T21:02:13;19.80;42.70
41644;DHT22;44236;48.098;11.582;2022-12-18T21:04:38;19.70;42.80
41644;DHT22;44236;48.098;11.582;2022-12-18T21:07:04;19.80;43.10
41644;DHT22;44236;48.098;11.582;2022-12-18T21:09:30;19.70;43.10
41644;DHT22;44236;48.098;11.582;2022-12-18T21:11:56;19.70;43.00
41644;DHT22;44236;48.098;11.582;2022-12-18T21:14:42;19.70;43.00
41644;DHT22;44236;48.098;11.582;2022-12-18T21:17:08;19.70;43.00
41644;DHT22;44236;48.098;11.582;2022-12-18T21:19:34;19.70;42.80
41644;DHT22;44236;48.098;11.582;2022-12-18T21:21:59;19.70;42.80
41644;DHT22;44236;48.098;11.582;2022-12-18T21:24:25;19.70;42.90
41644;DHT22;44236;48.098;11.582;2022-12-18T21:26:52;19.70;42.80
41644;DHT22;44236;48.098;11.582;2022-12-18T21:29:20;19.70;42.50
41644;DHT22;44236;48.098;11.582;2022-12-18T21:31:47;19.70;42.60
41644;DHT22;44236;48.098;11.582;2022-12-18T21:34:24;19.70;42.70
41644;DHT22;44236;48.098;11.582;2022-12-18T21:36:51;19.70;42.40
41644;DHT22;44236;48.098;11.582;2022-12-18T21:39:17;19.70;42.20
41644;DHT22;44236;48.098;11.582;2022-12-18T21:41:43;19.70;41.90
41644;DHT22;44236;48.098;11.582;2022-12-18T21:44:28;19.60;41.60
41644;DHT22;44236;48.098;11.582;2022-12-18T21:46:55;19.60;41.60
41644;DHT22;44236;48.098;11.582;2022-12-18T21:49:21;19.50;41.60
41644;DHT22;44236;48.098;11.582;2022-12-18T21:51:48;19.50;41.40
41644;DHT22;44236;48.098;11.582;2022-12-18T21:54:15;19.50;41.40
41644;DHT22;44236;48.098;11.582;2022-12-18T21:56:50;19.40;41.50
41644;DHT22;44236;48.098;11.582;2022-12-18T21:59:21;19.40;41.30
41644;DHT22;44236;48.098;11.582;2022-12-18T22:01:49;19.30;41.30
41644;DHT22;44236;48.098;11.582;2022-12-18T22:04:15;19.30;41.30
41644;DHT22;44236;48.098;11.582;2022-12-18T22:06:42;19.30;41.20
41644;DHT22;44236;48.098;11.582;2022-12-18T22:09:09;19.20;41.00
41644;DHT22;44236;48.098;11.582;2022-12-18T22:11:35;19.20;41.20
41644;DHT22;44236;48.098;11.582;2022-12-18T22:14:01;19.20;41.00